^^
Paulen-Weather Station Historical Data
Daily Summary for May 05, 2022 Units:  English    Metric   Both
Daily Weekly Monthly Yearly Custom
  High: Low: Average:
Temperature: 48.2 °F 46.4 °F 46.8 °F
Dew Point: 44.6 °F 41 °F 42.6 °F
Humidity: 89% 84% 87%
Wind Speed: 8.1mph 0.6mph 3.7mph
Wind Gust: 6.2mph - -
Wind- - NW
Pressure: 30 in 30 in -
Precipitation: 0 in    
Historical Graphs
 
 
Tabular Data for May 05, 2022
Time Temperature Dew Point Pressure Wind Wind Speed Wind Gust Humidity Rainfall Rate (Hourly) solar
00:04 46.4 °F 41 °F 30 in NNW 4.3 mph 3.7 mph 84% 0 in 0 W/m2
00:09 46.4 °F 41 °F 30 in NNW 4.3 mph 3.1 mph 84% 0 in 0 W/m2
00:14 46.4 °F 41 °F 30 in N 6.2 mph 3.7 mph 84% 0 in 0 W/m2
00:19 46.4 °F 41 °F 30 in NNW 4.3 mph 3.7 mph 84% 0 in 0 W/m2
00:24 46.4 °F 41 °F 30 in NNW 4.3 mph 3.1 mph 84% 0 in 0 W/m2
00:29 46.4 °F 41 °F 30 in NNW 4.3 mph 3.1 mph 84% 0 in 0 W/m2
00:34 46.4 °F 41 °F 30 in NNW 3.7 mph 2.5 mph 84% 0 in 0 W/m2
00:39 46.4 °F 41 °F 30 in N 3.7 mph 3.7 mph 85% 0 in 0 W/m2
00:44 46.4 °F 41 °F 30 in NNW 4.3 mph 3.1 mph 85% 0 in 0 W/m2
00:49 46.4 °F 41 °F 30 in N 3.7 mph 2.5 mph 85% 0 in 0 W/m2
00:54 46.4 °F 41 °F 30 in NNW 3.7 mph 3.1 mph 85% 0 in 0 W/m2
00:59 46.4 °F 41 °F 30 in NNW 2.5 mph 2.5 mph 85% 0 in 0 W/m2
01:04 46.4 °F 42.8 °F 30 in NW 3.7 mph 3.1 mph 85% 0 in 0 W/m2
01:09 46.4 °F 42.8 °F 30 in NNW 3.1 mph 1.9 mph 86% 0 in 0 W/m2
01:14 46.4 °F 42.8 °F 30 in NNW 2.5 mph 1.9 mph 86% 0 in 0 W/m2
01:19 46.4 °F 42.8 °F 30 in NNW 5 mph 4.3 mph 86% 0 in 0 W/m2
01:29 46.4 °F 42.8 °F 30 in NNW 3.1 mph 2.5 mph 86% 0 in 0 W/m2
01:34 46.4 °F 42.8 °F 30 in NNW 3.7 mph 2.5 mph 86% 0 in 0 W/m2
01:39 46.4 °F 42.8 °F 30 in NNW 1.9 mph 1.2 mph 86% 0 in 0 W/m2
01:44 46.4 °F 42.8 °F 30 in NNW 0.6 mph 1.9 mph 87% 0 in 0 W/m2
01:49 46.4 °F 42.8 °F 30 in NNW 1.9 mph 1.9 mph 87% 0 in 0 W/m2
01:54 46.4 °F 42.8 °F 30 in NNW 1.2 mph 0.6 mph 87% 0 in 0 W/m2
01:59 46.4 °F 42.8 °F 30 in NNW 1.2 mph   87% 0 in 0 W/m2
02:04 46.4 °F 42.8 °F 30 in NNW 2.5 mph 1.2 mph 87% 0 in 0 W/m2
02:09 46.4 °F 42.8 °F 30 in N 1.2 mph 0.6 mph 87% 0 in 0 W/m2
02:14 46.4 °F 42.8 °F 30 in N 2.5 mph 1.2 mph 87% 0 in 0 W/m2
02:19 46.4 °F 42.8 °F 30 in N 0.6 mph 0.6 mph 87% 0 in 0 W/m2
02:24 46.4 °F 42.8 °F 30 in NNW 3.1 mph 3.1 mph 87% 0 in 0 W/m2
02:29 46.4 °F 42.8 °F 30 in NW 1.2 mph 0.6 mph 88% 0 in 0 W/m2
02:34 46.4 °F 42.8 °F 30 in N 2.5 mph 1.9 mph 88% 0 in 0 W/m2
02:39 46.4 °F 44.6 °F 30 in NNW 4.3 mph 2.5 mph 88% 0 in 0 W/m2
02:44 48.2 °F 44.6 °F 30 in NNW 5.6 mph 6.2 mph 89% 0 in 0 W/m2
02:49 48.2 °F 44.6 °F 30 in N 6.8 mph 4.3 mph 89% 0 in 0 W/m2
02:54 48.2 °F 44.6 °F 30 in NNE 4.3 mph 3.1 mph 89% 0 in 0 W/m2
02:59 48.2 °F 44.6 °F 30 in N 5.6 mph 4.3 mph 89% 0 in 0 W/m2
03:04 48.2 °F 44.6 °F 30 in NNW 5 mph 3.1 mph 89% 0 in 0 W/m2
03:09 48.2 °F 44.6 °F 30 in N 8.1 mph 5 mph 89% 0 in 0 W/m2
03:14 48.2 °F 44.6 °F 30 in NW 5.6 mph 5 mph 89% 0 in 0 W/m2
03:19 48.2 °F 44.6 °F 30 in N 6.2 mph 3.7 mph 89% 0 in 0 W/m2
Compliments of Weather Underground - 2 mb